Time;durP1;ratioP1;P1;durP2;ratioP2;P2;SDS_P1;SDS_P2;PMS_P1;PMS_P2;Temp;Humidity;BMP_temperature;BMP_pressure;BME280_temperature;BME280_humidity;BME280_pressure;Samples;Min_cycle;Max_cycle;Signal;HPM_P1;HPM_P2
2023/04/15 00:03:05;;;;;;;13.93;9.20;;;;;8.10;100118.00;;;;9835534;30;20296;-81
2023/04/15 00:08:07;;;;;;;14.37;8.03;;;;;8.20;100116.00;;;;9905732;29;20222;-81
2023/04/15 00:13:10;;;;;;;12.17;6.90;;;;;8.20;100117.00;;;;9863710;29;20238;-82
2023/04/15 00:18:12;;;;;;;11.13;7.00;;;;;8.30;100126.00;;;;9856131;29;20234;-81
2023/04/15 00:23:14;;;;;;;10.00;5.83;;;;;8.30;100121.00;;;;9850062;29;20208;-81
2023/04/15 00:28:17;;;;;;;8.27;5.00;;;;;8.40;100127.00;;;;9856558;29;20208;-81
2023/04/15 00:33:19;;;;;;;8.67;5.50;;;;;8.40;100123.00;;;;9836300;30;20435;-82
2023/04/15 00:38:22;;;;;;;9.90;5.87;;;;;8.40;100125.00;;;;9861820;29;20255;-81
2023/04/15 00:43:25;;;;;;;6.90;4.93;;;;;8.40;100118.00;;;;9861839;29;20524;-81
2023/04/15 00:48:27;;;;;;;11.97;5.50;;;;;8.40;100126.00;;;;9853606;29;20201;-81
2023/04/15 00:53:29;;;;;;;8.83;4.90;;;;;8.40;100121.00;;;;9839884;29;20716;-81
2023/04/15 00:58:31;;;;;;;7.53;4.97;;;;;8.30;100130.00;;;;9846632;29;20595;-81
2023/04/15 01:03:34;;;;;;;10.73;5.40;;;;;8.30;100139.00;;;;9847976;29;20203;-82
2023/04/15 01:08:37;;;;;;;7.27;4.77;;;;;8.40;100136.00;;;;9852150;29;20196;-82
2023/04/15 01:13:42;;;;;;;7.53;4.37;;;;;8.50;100131.00;;;;9859922;29;20296;-82
2023/04/15 01:18:45;;;;;;;11.47;4.70;;;;;8.40;100119.00;;;;9844174;29;20826;-80
2023/04/15 01:23:48;;;;;;;5.87;4.10;;;;;8.40;100119.00;;;;9826884;30;20307;-81
2023/04/15 01:28:50;;;;;;;7.67;3.93;;;;;8.40;100125.00;;;;9845702;29;20234;-81
2023/04/15 01:33:53;;;;;;;5.63;4.03;;;;;8.40;100119.00;;;;9884050;29;20203;-82
2023/04/15 01:39:14;;;;;;;4.37;3.83;;;;;8.40;100122.00;;;;9871977;29;20609;-81
2023/04/15 01:44:16;;;;;;;4.63;3.80;;;;;8.40;100129.00;;;;9859493;29;20204;-81
2023/04/15 01:49:18;;;;;;;5.67;3.80;;;;;8.40;100124.00;;;;9869142;29;20207;-82
2023/04/15 01:54:20;;;;;;;5.40;4.40;;;;;8.40;100119.00;;;;9868266;29;20212;-80
2023/04/15 01:59:22;;;;;;;8.00;4.97;;;;;8.40;100116.00;;;;9853495;29;20497;-81
2023/04/15 02:04:24;;;;;;;5.20;4.57;;;;;8.40;100112.00;;;;9867485;29;20208;-81
2023/04/15 02:09:26;;;;;;;5.87;4.13;;;;;8.40;100113.00;;;;9888726;29;20413;-80
2023/04/15 02:14:28;;;;;;;5.57;4.37;;;;;8.50;100113.00;;;;9883366;29;20676;-81
2023/04/15 02:19:31;;;;;;;11.53;5.43;;;;;8.50;100116.00;;;;9880558;29;20766;-81
2023/04/15 02:24:33;;;;;;;10.00;5.63;;;;;8.40;100123.00;;;;9847182;29;20205;-82
2023/04/15 02:29:37;;;;;;;10.83;5.57;;;;;8.40;100125.00;;;;9863190;29;20724;-81
2023/04/15 02:34:41;;;;;;;9.90;5.70;;;;;8.40;100133.00;;;;9905673;29;20200;-81
2023/04/15 02:39:44;;;;;;;8.63;6.50;;;;;8.40;100137.00;;;;9856848;29;20220;-81
2023/04/15 02:44:46;;;;;;;8.50;6.43;;;;;8.40;100143.00;;;;9868421;29;20203;-81
2023/04/15 02:49:48;;;;;;;10.57;7.17;;;;;8.40;100164.00;;;;9869164;29;20231;-80
2023/04/15 02:54:50;;;;;;;9.87;6.80;;;;;8.40;100171.00;;;;9861370;29;20211;-81
2023/04/15 02:59:52;;;;;;;10.47;6.90;;;;;8.40;100180.00;;;;9885219;29;20267;-80
2023/04/15 03:04:54;;;;;;;12.07;6.87;;;;;8.40;100179.00;;;;9861442;29;20216;-81
2023/04/15 03:09:57;;;;;;;9.67;6.00;;;;;8.40;100194.00;;;;9904428;29;20228;-81
2023/04/15 03:15:00;;;;;;;8.33;6.23;;;;;8.30;100194.00;;;;9897699;29;20208;-81
2023/04/15 03:20:10;;;;;;;9.97;6.40;;;;;8.30;100204.00;;;;9880605;29;20231;-80
2023/04/15 03:25:12;;;;;;;8.10;6.50;;;;;8.30;100213.00;;;;9864968;29;20211;-81
2023/04/15 03:30:14;;;;;;;9.97;6.80;;;;;8.30;100221.00;;;;9873104;29;20215;-81
2023/04/15 03:35:17;;;;;;;11.83;7.57;;;;;8.30;100232.00;;;;9842296;30;20216;-80
2023/04/15 03:40:20;;;;;;;7.50;6.70;;;;;8.30;100228.00;;;;9851514;30;20308;-81
2023/04/15 03:45:22;;;;;;;10.07;6.40;;;;;8.20;100233.00;;;;9865062;29;20235;-80
2023/04/15 03:50:24;;;;;;;11.47;7.53;;;;;8.10;100238.00;;;;9875212;29;20647;-80
2023/04/15 03:55:26;;;;;;;7.87;5.83;;;;;8.10;100240.00;;;;9869117;29;20906;-81
2023/04/15 04:00:29;;;;;;;9.50;7.40;;;;;8.00;100255.00;;;;9878899;29;20265;-80
2023/04/15 04:05:31;;;;;;;11.20;7.40;;;;;8.00;100242.00;;;;9871870;29;20215;-81
2023/04/15 04:10:33;;;;;;;7.73;6.70;;;;;7.90;100247.00;;;;9900903;29;20727;-81
2023/04/15 04:15:35;;;;;;;11.57;7.30;;;;;7.90;100255.00;;;;9867062;29;20295;-81
2023/04/15 04:20:37;;;;;;;8.97;7.10;;;;;7.90;100260.00;;;;9870702;29;20227;-81
2023/04/15 04:25:40;;;;;;;11.30;7.33;;;;;7.80;100260.00;;;;9877634;29;20211;-80
2023/04/15 04:30:42;;;;;;;8.80;6.40;;;;;7.80;100264.00;;;;9856274;29;20228;-81
2023/04/15 04:35:46;;;;;;;9.90;6.23;;;;;7.70;100255.00;;;;9838496;29;20289;-80
2023/04/15 04:40:47;;;;;;;8.90;6.00;;;;;7.60;100270.00;;;;9844998;29;20334;-80
2023/04/15 04:45:49;;;;;;;11.47;5.73;;;;;7.60;100275.00;;;;9874354;29;20212;-81
2023/04/15 04:50:52;;;;;;;9.23;6.43;;;;;7.60;100286.00;;;;9864467;29;20204;-80
2023/04/15 04:55:54;;;;;;;8.93;6.50;;;;;7.60;100298.00;;;;9845596;29;20208;-80
2023/04/15 05:00:57;;;;;;;11.03;6.73;;;;;7.70;100312.00;;;;9853302;29;20347;-81
2023/04/15 05:05:59;;;;;;;12.10;7.20;;;;;7.70;100320.00;;;;9839317;29;20204;-80
2023/04/15 05:11:02;;;;;;;10.80;6.33;;;;;7.80;100335.00;;;;9876185;29;20211;-81
2023/04/15 05:16:05;;;;;;;9.13;6.67;;;;;7.80;100344.00;;;;9828654;30;20621;-81
2023/04/15 05:21:07;;;;;;;8.67;6.30;;;;;7.80;100348.00;;;;9862152;29;20227;-81
2023/04/15 05:26:09;;;;;;;8.80;6.90;;;;;7.90;100367.00;;;;9852889;29;20264;-80
2023/04/15 05:31:11;;;;;;;10.63;6.67;;;;;7.90;100388.00;;;;9891252;29;20782;-80
2023/04/15 05:36:13;;;;;;;11.03;6.40;;;;;8.00;100380.00;;;;9866101;29;20212;-81
2023/04/15 05:41:16;;;;;;;9.70;6.93;;;;;8.00;100392.00;;;;9855233;29;20223;-80
2023/04/15 05:46:21;;;;;;;9.07;6.70;;;;;8.00;100398.00;;;;9864449;29;20295;-80
2023/04/15 05:51:23;;;;;;;10.63;7.00;;;;;8.10;100400.00;;;;9860268;29;20855;-81
2023/04/15 05:56:25;;;;;;;13.13;6.17;;;;;8.20;100388.00;;;;9866725;29;20224;-80
2023/04/15 06:01:28;;;;;;;9.93;6.13;;;;;8.30;100408.00;;;;9873087;29;20223;-81
2023/04/15 06:06:31;;;;;;;9.87;6.70;;;;;8.40;100421.00;;;;9857390;29;20257;-80
2023/04/15 06:11:33;;;;;;;11.33;6.90;;;;;8.60;100440.00;;;;9882024;29;20215;-79
2023/04/15 06:16:35;;;;;;;8.73;6.17;;;;;8.80;100456.00;;;;9839817;29;20234;-81
2023/04/15 06:21:37;;;;;;;8.57;6.47;;;;;9.00;100460.00;;;;9848360;29;20253;-79
2023/04/15 06:26:39;;;;;;;10.73;7.10;;;;;9.20;100468.00;;;;9860387;29;20210;-79
2023/04/15 06:31:42;;;;;;;8.80;6.53;;;;;9.40;100457.00;;;;9865279;29;20440;-80
2023/04/15 06:36:44;;;;;;;10.33;6.10;;;;;9.50;100466.00;;;;9849944;29;20673;-80
2023/04/15 06:41:46;;;;;;;7.63;6.23;;;;;9.60;100469.00;;;;9860173;29;20723;-79
2023/04/15 06:46:48;;;;;;;9.90;6.27;;;;;9.80;100476.00;;;;9822195;29;20248;-80
2023/04/15 06:51:51;;;;;;;9.67;6.67;;;;;10.00;100471.00;;;;9849554;30;20265;-80
2023/04/15 06:56:53;;;;;;;17.33;7.37;;;;;10.10;100480.00;;;;9888563;29;20246;-80
2023/04/15 07:01:55;;;;;;;14.43;7.13;;;;;10.40;100492.00;;;;9858284;29;20251;-79
2023/04/15 07:07:01;;;;;;;12.03;7.30;;;;;10.70;100496.00;;;;9861392;29;20288;-80
2023/04/15 07:12:03;;;;;;;11.50;6.90;;;;;10.90;100506.00;;;;9878238;29;20250;-79
2023/04/15 07:17:05;;;;;;;12.53;7.70;;;;;11.00;100514.00;;;;9861540;29;20211;-79
2023/04/15 07:22:08;;;;;;;12.63;7.90;;;;;11.00;100526.00;;;;9865203;29;20219;-79
2023/04/15 07:27:10;;;;;;;12.80;7.80;;;;;11.20;100539.00;;;;9864667;29;20408;-81
2023/04/15 07:32:12;;;;;;;17.17;7.93;;;;;11.50;100545.00;;;;9869346;29;20689;-80
2023/04/15 07:37:14;;;;;;;10.53;8.30;;;;;11.90;100554.00;;;;9832606;29;20211;-79
2023/04/15 07:42:16;;;;;;;13.60;9.03;;;;;12.60;100555.00;;;;9834829;29;20216;-80
2023/04/15 07:47:18;;;;;;;10.83;8.97;;;;;13.50;100560.00;;;;9811980;29;20314;-77
2023/04/15 07:52:21;;;;;;;12.27;9.10;;;;;14.20;100560.00;;;;9820247;29;20799;-81
2023/04/15 07:57:22;;;;;;;14.23;10.00;;;;;14.70;100570.00;;;;9828112;29;20251;-79
2023/04/15 08:02:25;;;;;;;13.90;9.63;;;;;14.10;100575.00;;;;9842665;29;20227;-80
2023/04/15 08:07:27;;;;;;;12.10;9.27;;;;;13.70;100592.00;;;;9836896;29;20223;-79
2023/04/15 08:12:30;;;;;;;13.97;9.97;;;;;13.50;100595.00;;;;9845250;29;20220;-79
2023/04/15 08:17:32;;;;;;;11.57;9.60;;;;;13.80;100593.00;;;;9864530;29;20223;-80
2023/04/15 08:22:34;;;;;;;12.67;9.93;;;;;14.90;100590.00;;;;9892865;29;20660;-80
2023/04/15 08:27:36;;;;;;;12.60;8.70;;;;;16.40;100598.00;;;;9842967;29;20204;-80
2023/04/15 08:32:45;;;;;;;14.30;9.77;;;;;17.40;100611.00;;;;9863285;29;20212;-80
2023/04/15 08:37:48;;;;;;;11.57;8.18;;;;;18.50;100616.00;;;;9826089;29;20286;-80
2023/04/15 08:42:55;;;;;;;10.90;7.35;;;;;19.20;100623.00;;;;9835459;29;20207;-80
2023/04/15 08:47:57;;;;;;;8.60;5.47;;;;;19.50;100633.00;;;;9845266;29;20234;-79
2023/04/15 08:53:00;;;;;;;10.05;6.55;;;;;19.50;100634.00;;;;9846061;29;20704;-79
2023/04/15 08:58:03;;;;;;;9.18;6.45;;;;;19.40;100654.00;;;;9860752;29;20462;-80
2023/04/15 09:03:06;;;;;;;10.88;6.25;;;;;19.50;100661.00;;;;9884661;29;20207;-80
2023/04/15 09:08:08;;;;;;;7.93;5.82;;;;;19.30;100666.00;;;;9880226;29;20265;-80
2023/04/15 09:13:11;;;;;;;9.07;6.60;;;;;19.20;100668.00;;;;9869847;29;20369;-79
2023/04/15 09:18:26;;;;;;;7.55;6.20;;;;;19.50;100684.00;;;;9872773;29;20228;-80
2023/04/15 09:23:28;;;;;;;11.30;6.80;;;;;19.90;100691.00;;;;9894417;29;20222;-79
2023/04/15 09:28:31;;;;;;;7.65;5.93;;;;;20.30;100701.00;;;;9886542;29;20212;-80
2023/04/15 09:33:33;;;;;;;8.50;4.57;;;;;20.10;100707.00;;;;9901424;29;20842;-80
2023/04/15 09:38:47;;;;;;;6.20;4.57;;;;;20.00;100719.00;;;;9888088;29;20284;-80
2023/04/15 09:43:49;;;;;;;6.38;5.05;;;;;20.20;100732.00;;;;9863306;29;20277;-80
2023/04/15 09:49:07;;;;;;;7.57;6.15;;;;;20.30;100736.00;;;;9883714;29;20720;-80
2023/04/15 09:54:09;;;;;;;8.57;5.22;;;;;20.30;100749.00;;;;9878347;29;20700;-80
2023/04/15 09:59:12;;;;;;;9.55;5.75;;;;;20.50;100759.00;;;;9871297;29;20804;-81
2023/04/15 10:04:14;;;;;;;6.80;4.97;;;;;20.90;100756.00;;;;9866478;29;20208;-80
2023/04/15 10:09:17;;;;;;;7.88;4.82;;;;;20.80;100777.00;;;;9876828;29;20237;-80
2023/04/15 10:14:19;;;;;;;5.80;4.60;;;;;20.90;100786.00;;;;9893621;29;20216;-79
2023/04/15 10:19:26;;;;;;;7.07;4.20;;;;;21.00;100776.00;;;;9842301;29;20251;-79
2023/04/15 10:24:30;;;;;;;6.22;3.13;;;;;21.20;100791.00;;;;9871005;29;20216;-79
2023/04/15 10:29:33;;;;;;;5.57;3.53;;;;;21.40;100790.00;;;;9867108;29;20235;-80
2023/04/15 10:34:37;;;;;;;3.20;2.53;;;;;21.40;100797.00;;;;9886926;29;20727;-80
2023/04/15 10:39:42;;;;;;;5.10;3.55;;;;;20.90;100811.00;;;;9879335;29;20224;-79
2023/04/15 10:44:50;;;;;;;5.72;3.55;;;;;21.50;100816.00;;;;9864108;29;20227;-80
2023/04/15 10:49:58;;;;;;;3.85;2.38;;;;;21.70;100831.00;;;;9886776;29;20268;-79
2023/04/15 10:55:16;;;;;;;5.25;3.40;;;;;21.30;100832.00;;;;9858996;29;20206;-79
2023/04/15 11:00:19;;;;;;;6.10;4.25;;;;;21.80;100832.00;;;;9864105;29;20279;-80
2023/04/15 11:05:41;;;;;;;5.20;4.43;;;;;22.10;100818.00;;;;9872045;29;20264;-79
2023/04/15 11:10:43;;;;;;;4.03;2.80;;;;;22.00;100834.00;;;;9902111;29;20653;-80
2023/04/15 11:15:47;;;;;;;5.38;3.00;;;;;22.20;100831.00;;;;9845871;29;20311;-79
2023/04/15 11:20:56;;;;;;;3.88;2.95;;;;;22.50;100827.00;;;;9846121;29;20755;-79
2023/04/15 11:26:01;;;;;;;5.13;2.38;;;;;22.80;100849.00;;;;9874415;29;20218;-79
2023/04/15 11:31:14;;;;;;;3.63;3.33;;;;;22.90;100850.00;;;;9865501;29;20211;-80
2023/04/15 11:36:16;;;;;;;5.15;3.30;;;;;23.00;100863.00;;;;9872035;29;20207;-80
2023/04/15 11:41:22;;;;;;;4.85;2.40;;;;;23.40;100870.00;;;;9847670;29;20231;-80
2023/04/15 11:46:30;;;;;;;2.75;2.30;;;;;23.30;100879.00;;;;9874768;29;20228;-80
2023/04/15 11:51:33;;;;;;;3.67;2.15;;;;;23.60;100873.00;;;;9854280;30;20249;-80
2023/04/15 11:56:35;;;;;;;5.47;2.55;;;;;23.10;100893.00;;;;9861227;29;20792;-79
2023/04/15 12:01:38;;;;;;;3.85;2.80;;;;;23.00;100894.00;;;;9858519;29;20224;-81
2023/04/15 12:06:40;;;;;;;3.95;2.90;;;;;23.20;100895.00;;;;9851133;29;20223;-80
2023/04/15 12:11:53;;;;;;;4.68;3.60;;;;;23.10;100897.00;;;;9852920;29;20314;-79
2023/04/15 12:16:58;;;;;;;3.95;3.53;;;;;23.30;100907.00;;;;9859310;29;20219;-79
2023/04/15 12:22:04;;;;;;;4.15;2.13;;;;;23.60;100926.00;;;;9845210;29;20326;-80
2023/04/15 12:27:16;;;;;;;2.75;2.50;;;;;23.80;100930.00;;;;9860876;29;20211;-80
2023/04/15 12:32:19;;;;;;;4.45;2.00;;;;;23.30;100940.00;;;;9866751;29;20280;-80
2023/04/15 12:37:22;;;;;;;2.45;2.05;;;;;21.70;100950.00;;;;9818161;29;20215;-80
2023/04/15 12:42:24;;;;;;;2.15;1.77;;;;;22.50;100961.00;;;;9856153;29;20231;-80
2023/04/15 12:47:26;;;;;;;3.38;2.15;;;;;22.70;100960.00;;;;9839195;29;20219;-80
2023/04/15 12:52:28;;;;;;;1.85;1.55;;;;;22.70;100965.00;;;;9854576;29;20264;-80
2023/04/15 12:57:30;;;;;;;2.45;1.60;;;;;22.30;100980.00;;;;9853287;29;20208;-79
2023/04/15 13:02:32;;;;;;;4.30;2.03;;;;;22.10;100976.00;;;;9894501;29;20223;-80
2023/04/15 13:07:34;;;;;;;2.42;2.08;;;;;22.30;100976.00;;;;9855866;29;20228;-80
2023/04/15 13:12:36;;;;;;;3.15;2.30;;;;;22.10;100975.00;;;;9844215;29;20242;-81
2023/04/15 13:17:38;;;;;;;3.20;2.60;;;;;22.50;100994.00;;;;9859986;29;20260;-80
2023/04/15 13:22:41;;;;;;;9.80;5.70;;;;;24.20;100977.00;;;;9863360;29;20314;-80
2023/04/15 13:27:43;;;;;;;4.43;3.38;;;;;26.00;100981.00;;;;9872786;29;20224;-80
2023/04/15 13:32:45;;;;;;;5.57;3.10;;;;;26.70;100992.00;;;;9869820;29;20290;-80
2023/04/15 13:37:49;;;;;;;2.63;2.15;;;;;27.40;100985.00;;;;9869559;29;20699;-81
2023/04/15 13:42:53;;;;;;;4.25;2.47;;;;;23.80;101020.00;;;;9882365;29;20235;-80
2023/04/15 13:47:56;;;;;;;2.83;2.10;;;;;24.50;100990.00;;;;9873266;29;20269;-80
2023/04/15 13:52:58;;;;;;;4.88;1.90;;;;;26.70;101015.00;;;;9867806;29;20243;-79
2023/04/15 13:58:00;;;;;;;2.60;1.77;;;;;28.50;101025.00;;;;9864038;29;20298;-80
2023/04/15 14:03:02;;;;;;;3.97;2.20;;;;;28.90;101027.00;;;;9831815;30;20228;-79
2023/04/15 14:08:04;;;;;;;4.72;1.67;;;;;28.50;101036.00;;;;9830455;30;20616;-80
2023/04/15 14:13:06;;;;;;;2.40;1.10;;;;;28.90;101042.00;;;;9829513;29;20239;-80
2023/04/15 14:18:08;;;;;;;4.00;1.20;;;;;29.10;101065.00;;;;9866566;29;20219;-80
2023/04/15 14:23:10;;;;;;;0.88;0.80;;;;;29.80;101065.00;;;;9847469;29;20224;-80
2023/04/15 14:28:13;;;;;;;3.47;1.30;;;;;29.60;101066.00;;;;9878898;29;20211;-81
2023/04/15 14:33:15;;;;;;;1.73;1.08;;;;;30.40;101073.00;;;;9861599;29;20951;-80
2023/04/15 14:38:17;;;;;;;3.33;1.15;;;;;30.00;101070.00;;;;9839676;29;20216;-80
2023/04/15 14:43:20;;;;;;;2.70;1.63;;;;;29.80;101091.00;;;;9844107;29;20215;-80
2023/04/15 14:48:22;;;;;;;4.30;2.00;;;;;29.70;101083.00;;;;9856616;29;20208;-80
2023/04/15 14:53:24;;;;;;;2.20;1.90;;;;;29.90;101085.00;;;;9848694;29;20206;-81
2023/04/15 14:58:26;;;;;;;2.33;1.55;;;;;24.60;101122.00;;;;9880297;29;20233;-80
2023/04/15 15:03:29;;;;;;;2.25;1.60;;;;;25.90;101118.00;;;;9879090;29;20351;-81
2023/04/15 15:08:31;;;;;;;2.40;1.60;;;;;25.50;101124.00;;;;9902415;29;20242;-80
2023/04/15 15:13:34;;;;;;;2.53;2.30;;;;;21.90;101129.00;;;;9849398;29;20211;-80
2023/04/15 15:18:36;;;;;;;6.80;2.90;;;;;20.50;101131.00;;;;9852377;29;20657;-79
2023/04/15 15:23:38;;;;;;;4.07;2.10;;;;;19.20;101142.00;;;;9863397;29;20243;-79
2023/04/15 15:28:41;;;;;;;2.42;2.10;;;;;18.30;101142.00;;;;9847735;29;20303;-81
2023/04/15 15:33:43;;;;;;;5.43;2.80;;;;;17.50;101150.00;;;;9851523;30;20786;-80
2023/04/15 15:38:46;;;;;;;3.88;2.60;;;;;16.60;101155.00;;;;9840327;29;20223;-80
2023/04/15 15:43:48;;;;;;;4.68;2.30;;;;;16.20;101165.00;;;;9862930;29;20228;-79
2023/04/15 15:48:50;;;;;;;3.20;2.20;;;;;16.00;101158.00;;;;9838572;29;20222;-80
2023/04/15 15:53:52;;;;;;;2.67;1.70;;;;;17.00;101161.00;;;;9862354;29;20216;-79
2023/04/15 15:58:54;;;;;;;4.03;1.48;;;;;17.00;101173.00;;;;9861024;29;20239;-80
2023/04/15 16:03:56;;;;;;;5.28;2.03;;;;;17.20;101182.00;;;;9862070;29;20199;-80
2023/04/15 16:08:58;;;;;;;2.53;1.50;;;;;17.50;101196.00;;;;9870579;29;20214;-80
2023/04/15 16:14:01;;;;;;;3.70;1.70;;;;;16.60;101209.00;;;;9858252;29;20283;-81
2023/04/15 16:19:02;;;;;;;2.35;1.42;;;;;15.80;101213.00;;;;9868188;29;20279;-80
2023/04/15 16:24:05;;;;;;;2.17;1.45;;;;;15.40;101223.00;;;;9867669;29;20219;-81
2023/04/15 16:29:07;;;;;;;2.92;1.58;;;;;15.20;101224.00;;;;9854051;29;20211;-81
2023/04/15 16:34:09;;;;;;;2.53;1.48;;;;;15.10;101237.00;;;;9881950;29;20234;-81
2023/04/15 16:39:11;;;;;;;2.40;1.10;;;;;15.20;101234.00;;;;9876696;29;20235;-81
2023/04/15 16:44:13;;;;;;;2.05;1.60;;;;;15.30;101242.00;;;;9850209;29;20245;-80
2023/04/15 16:49:15;;;;;;;2.35;1.67;;;;;15.20;101249.00;;;;9852146;29;20215;-80
2023/04/15 16:54:17;;;;;;;4.07;1.63;;;;;15.20;101273.00;;;;9850227;29;20215;-80
2023/04/15 16:59:20;;;;;;;3.53;1.30;;;;;15.10;101283.00;;;;9842897;29;20219;-80
2023/04/15 17:04:22;;;;;;;2.80;1.60;;;;;14.90;101276.00;;;;9864013;29;20203;-79
2023/04/15 17:09:24;;;;;;;3.67;1.40;;;;;14.60;101279.00;;;;9865675;29;20389;-80
2023/04/15 17:14:27;;;;;;;4.43;1.80;;;;;14.20;101286.00;;;;9832702;29;20319;-80
2023/04/15 17:19:29;;;;;;;2.43;1.17;;;;;14.00;101298.00;;;;9813097;29;20258;-80
2023/04/15 17:24:38;;;;;;;3.00;1.50;;;;;13.90;101302.00;;;;9844002;29;20219;-80
2023/04/15 17:29:43;;;;;;;2.30;1.23;;;;;13.80;101309.00;;;;9847014;29;20227;-81
2023/04/15 17:35:06;;;;;;;4.97;1.70;;;;;13.70;101309.00;;;;9829389;29;20210;-79
2023/04/15 17:40:28;;;;;;;2.60;1.60;;;;;13.50;101307.00;;;;9867014;29;20711;-81
2023/04/15 17:45:50;;;;;;;3.60;1.40;;;;;13.30;101323.00;;;;9852222;29;20215;-81
2023/04/15 17:51:12;;;;;;;3.07;1.67;;;;;13.20;101323.00;;;;9843153;29;20468;-81
2023/04/15 17:56:34;;;;;;;2.43;2.00;;;;;13.00;101333.00;;;;9843274;29;20227;-81
2023/04/15 18:01:57;;;;;;;5.47;1.77;;;;;12.80;101338.00;;;;9853318;29;20328;-81
2023/04/15 18:07:19;;;;;;;4.23;1.87;;;;;12.70;101348.00;;;;9836049;29;20276;-81
2023/04/15 18:12:41;;;;;;;6.77;2.37;;;;;12.50;101355.00;;;;9841015;29;20227;-81
2023/04/15 18:18:03;;;;;;;6.57;2.10;;;;;12.20;101356.00;;;;9831313;29;20218;-80
2023/04/15 18:23:06;;;;;;;6.77;2.60;;;;;12.10;101364.00;;;;9845129;29;20242;-80
2023/04/15 18:28:08;;;;;;;3.90;2.33;;;;;11.90;101385.00;;;;9857785;29;20218;-81
2023/04/15 18:33:11;;;;;;;4.53;2.00;;;;;11.80;101388.00;;;;9834427;29;20622;-81
2023/04/15 18:38:13;;;;;;;6.73;2.60;;;;;11.80;101401.00;;;;9808452;29;20413;-81
2023/04/15 18:43:14;;;;;;;4.43;1.97;;;;;11.70;101409.00;;;;9864787;29;20232;-80
2023/04/15 18:48:16;;;;;;;6.97;2.80;;;;;11.70;101420.00;;;;9847947;29;20215;-81
2023/04/15 18:53:19;;;;;;;2.30;2.10;;;;;11.50;101421.00;;;;9843466;29;20587;-79
2023/04/15 18:58:22;;;;;;;4.90;2.50;;;;;11.20;101441.00;;;;9864799;29;20291;-81
2023/04/15 19:03:24;;;;;;;7.10;3.07;;;;;11.00;101438.00;;;;9837580;29;20964;-80
2023/04/15 19:08:26;;;;;;;4.47;2.93;;;;;10.80;101460.00;;;;9815969;29;20284;-81
2023/04/15 19:13:28;;;;;;;4.33;2.80;;;;;10.60;101468.00;;;;9838131;29;20355;-82
2023/04/15 19:18:30;;;;;;;5.10;2.80;;;;;10.40;101478.00;;;;9803638;29;20269;-83
2023/04/15 19:23:33;;;;;;;6.87;3.13;;;;;10.10;101481.00;;;;9814935;29;20232;-82
2023/04/15 19:28:35;;;;;;;8.03;3.60;;;;;9.90;101491.00;;;;9836276;29;20781;-82
2023/04/15 19:33:37;;;;;;;6.83;3.70;;;;;9.70;101508.00;;;;9847370;29;20216;-82
2023/04/15 19:38:39;;;;;;;10.10;5.07;;;;;9.50;101515.00;;;;9825035;29;20207;-82
2023/04/15 19:43:41;;;;;;;11.73;4.70;;;;;9.30;101511.00;;;;9840056;29;20224;-81
2023/04/15 19:48:43;;;;;;;11.23;5.67;;;;;9.20;101516.00;;;;9851189;29;20992;-81
2023/04/15 19:53:48;;;;;;;11.07;6.13;;;;;9.00;101528.00;;;;9819826;29;20864;-82
2023/04/15 19:58:51;;;;;;;9.67;6.20;;;;;8.90;101538.00;;;;9845973;30;20223;-81
2023/04/15 20:03:53;;;;;;;14.67;7.03;;;;;8.70;101540.00;;;;9871089;29;20311;-83
2023/04/15 20:08:56;;;;;;;16.57;7.83;;;;;8.60;101550.00;;;;9884553;29;20238;-81
2023/04/15 20:13:58;;;;;;;11.27;7.77;;;;;8.50;101559.00;;;;9829208;29;20276;-81
2023/04/15 20:19:07;;;;;;;9.77;6.57;;;;;8.40;101561.00;;;;9838218;29;20211;-82
2023/04/15 20:24:09;;;;;;;15.77;7.30;;;;;8.30;101573.00;;;;9837116;29;20212;-82
2023/04/15 20:29:12;;;;;;;13.57;7.47;;;;;8.20;101576.00;;;;9853623;30;20206;-81
2023/04/15 20:34:14;;;;;;;10.70;6.23;;;;;8.10;101580.00;;;;9840881;29;20303;-82
2023/04/15 20:39:16;;;;;;;16.47;7.50;;;;;8.00;101576.00;;;;9885233;29;20237;-83
2023/04/15 20:44:18;;;;;;;13.03;6.63;;;;;7.90;101583.00;;;;9891470;29;20271;-83
2023/04/15 20:49:20;;;;;;;12.87;6.83;;;;;7.90;101595.00;;;;9857713;29;20212;-81
2023/04/15 20:54:22;;;;;;;8.17;4.60;;;;;7.80;101603.00;;;;9857598;29;20913;-82
2023/04/15 20:59:24;;;;;;;9.87;4.83;;;;;7.80;101600.00;;;;9841613;29;20208;-82
2023/04/15 21:04:26;;;;;;;14.47;5.13;;;;;7.70;101608.00;;;;9828307;29;20291;-82
2023/04/15 21:09:29;;;;;;;12.03;5.83;;;;;7.60;101617.00;;;;9814340;29;20223;-82
2023/04/15 21:14:31;;;;;;;7.60;3.00;;;;;7.50;101617.00;;;;9846257;29;20216;-82
2023/04/15 21:19:34;;;;;;;9.17;3.83;;;;;7.40;101631.00;;;;9808107;29;20220;-81
2023/04/15 21:24:36;;;;;;;5.50;3.60;;;;;7.30;101633.00;;;;9802077;29;20416;-82
2023/04/15 21:29:39;;;;;;;6.73;3.47;;;;;7.20;101641.00;;;;9821087;29;20294;-81
2023/04/15 21:34:41;;;;;;;11.00;3.97;;;;;7.10;101643.00;;;;9815837;29;20204;-82
2023/04/15 21:39:43;;;;;;;7.83;4.17;;;;;7.00;101654.00;;;;9844622;29;20294;-81
2023/04/15 21:44:45;;;;;;;18.23;3.83;;;;;7.00;101652.00;;;;9845935;29;20294;-81
2023/04/15 21:49:47;;;;;;;10.30;3.40;;;;;7.00;101656.00;;;;9851135;29;20207;-81
2023/04/15 21:54:50;;;;;;;10.90;3.20;;;;;7.10;101670.00;;;;9849103;29;20222;-81
2023/04/15 21:59:51;;;;;;;8.93;2.73;;;;;7.20;101674.00;;;;9810913;29;20411;-81
2023/04/15 22:04:53;;;;;;;6.23;2.27;;;;;7.20;101667.00;;;;9828857;29;20257;-81
2023/04/15 22:09:55;;;;;;;4.93;2.40;;;;;7.10;101672.00;;;;9860008;29;20208;-82
2023/04/15 22:14:57;;;;;;;9.37;2.83;;;;;7.00;101682.00;;;;9826864;29;20226;-82
2023/04/15 22:19:59;;;;;;;9.60;2.30;;;;;6.80;101689.00;;;;9836871;29;20298;-82
2023/04/15 22:25:01;;;;;;;9.63;2.30;;;;;6.80;101698.00;;;;9849145;29;20892;-82
2023/04/15 22:30:04;;;;;;;8.87;2.97;;;;;6.80;101710.00;;;;9842403;29;20223;-82
2023/04/15 22:35:07;;;;;;;10.83;2.60;;;;;6.80;101707.00;;;;9863595;29;20207;-81
2023/04/15 22:40:10;;;;;;;8.67;2.90;;;;;6.90;101709.00;;;;9848107;29;20774;-81
2023/04/15 22:45:12;;;;;;;7.73;2.57;;;;;7.10;101723.00;;;;9875827;29;20334;-82
2023/04/15 22:50:14;;;;;;;14.90;3.67;;;;;7.20;101736.00;;;;9878542;29;20454;-83
2023/04/15 22:55:17;;;;;;;17.47;4.87;;;;;7.20;101741.00;;;;9864199;29;20203;-81
2023/04/15 23:00:21;;;;;;;9.97;5.90;;;;;7.20;101745.00;;;;9833978;29;20353;-81
2023/04/15 23:05:23;;;;;;;10.87;5.10;;;;;7.10;101746.00;;;;9889003;29;20215;-82
2023/04/15 23:10:25;;;;;;;10.90;5.83;;;;;7.10;101744.00;;;;9878719;29;20401;-82
2023/04/15 23:15:27;;;;;;;8.80;6.17;;;;;7.10;101751.00;;;;9826863;30;20265;-82
2023/04/15 23:20:29;;;;;;;9.07;4.73;;;;;7.10;101747.00;;;;9841423;30;20212;-82
2023/04/15 23:25:31;;;;;;;14.03;5.40;;;;;7.20;101756.00;;;;9845397;29;20422;-82
2023/04/15 23:30:33;;;;;;;9.33;5.13;;;;;7.20;101748.00;;;;9865361;29;20715;-82
2023/04/15 23:35:36;;;;;;;11.77;4.50;;;;;7.30;101758.00;;;;9873849;29;20212;-81
2023/04/15 23:40:38;;;;;;;6.57;4.67;;;;;7.40;101769.00;;;;9862133;29;20215;-83
2023/04/15 23:45:40;;;;;;;7.03;3.40;;;;;7.40;101763.00;;;;9876609;29;20204;-81
2023/04/15 23:50:42;;;;;;;11.47;4.70;;;;;7.50;101768.00;;;;9843963;29;20234;-82
2023/04/15 23:55:44;;;;;;;8.60;2.70;;;;;7.50;101771.00;;;;9856893;29;20215;-82
